Time;durP1;ratioP1;P1;durP2;ratioP2;P2;SDS_P1;SDS_P2;PMS_P1;PMS_P2;Temp;Humidity;BMP_temperature;BMP_pressure;BME280_temperature;BME280_humidity;BME280_pressure;Samples;Min_cycle;Max_cycle;Signal;HPM_P1;HPM_P2
2022/11/16 00:01:10;;;;;;;34.40;25.07;;;;;;;7.30;100.00;100340.81;4982315;28;20318;-53
2022/11/16 00:03:37;;;;;;;33.80;23.77;;;;;;;7.78;100.00;100334.09;4986492;28;20229;-53
2022/11/16 00:06:05;;;;;;;33.57;23.97;;;;;;;7.82;100.00;100326.25;4988965;28;20266;-54
2022/11/16 00:08:37;;;;;;;30.90;24.20;;;;;;;7.75;100.00;100329.72;4990337;28;20254;-54
2022/11/16 00:11:06;;;;;;;35.30;24.10;;;;;;;7.38;100.00;100334.78;4992055;28;20640;-55
2022/11/16 00:13:34;;;;;;;39.70;26.03;;;;;;;7.29;100.00;100328.63;4989416;28;20624;-54
2022/11/16 00:16:01;;;;;;;32.90;24.07;;;;;;;7.26;100.00;100328.59;4990811;28;20301;-53
2022/11/16 00:18:28;;;;;;;34.80;24.83;;;;;;;7.38;100.00;100333.91;4991838;28;20341;-53
2022/11/16 00:20:55;;;;;;;35.67;25.13;;;;;;;7.43;100.00;100329.56;4988596;28;20257;-54
2022/11/16 00:23:22;;;;;;;35.77;24.33;;;;;;;7.80;100.00;100327.13;4995424;28;20322;-55
2022/11/16 00:25:48;;;;;;;33.13;22.07;;;;;;;7.67;100.00;100317.50;4983429;28;20769;-54
2022/11/16 00:28:15;;;;;;;31.30;21.77;;;;;;;7.61;100.00;100321.81;4995140;28;21008;-55
2022/11/16 00:30:43;;;;;;;37.10;23.47;;;;;;;7.55;100.00;100320.94;4988151;28;20315;-53
2022/11/16 00:33:14;;;;;;;32.70;23.90;;;;;;;7.55;100.00;100327.03;4978258;28;20229;-56
2022/11/16 00:35:41;;;;;;;32.03;22.40;;;;;;;7.32;100.00;100320.81;4993436;28;20305;-55
2022/11/16 00:38:07;;;;;;;33.20;22.67;;;;;;;6.76;100.00;100327.41;4996867;28;20329;-55
2022/11/16 00:40:34;;;;;;;29.40;21.67;;;;;;;7.11;100.00;100330.25;4993385;28;20296;-55
2022/11/16 00:43:00;;;;;;;34.30;22.53;;;;;;;7.15;100.00;100337.25;4988527;28;20313;-55
2022/11/16 00:45:27;;;;;;;33.87;22.00;;;;;;;7.17;100.00;100325.09;4992180;28;20234;-54
2022/11/16 00:47:55;;;;;;;31.60;22.43;;;;;;;7.15;100.00;100332.03;4982832;28;20324;-54
2022/11/16 00:50:21;;;;;;;32.60;21.47;;;;;;;7.17;100.00;100324.22;4983541;28;20238;-54
2022/11/16 00:52:48;;;;;;;32.83;22.47;;;;;;;6.90;100.00;100315.31;4981802;28;20257;-54
2022/11/16 00:55:15;;;;;;;34.57;22.90;;;;;;;6.88;100.00;100321.38;4984849;28;20325;-55
2022/11/16 00:57:41;;;;;;;29.60;20.97;;;;;;;6.80;100.00;100315.25;4984025;28;20678;-56
2022/11/16 01:00:10;;;;;;;30.17;21.97;;;;;;;6.87;100.00;100319.66;4982893;28;20320;-53
2022/11/16 01:02:36;;;;;;;28.50;19.97;;;;;;;7.40;100.00;100324.31;4981576;28;20258;-54
2022/11/16 01:05:08;;;;;;;29.43;19.77;;;;;;;7.42;100.00;100325.22;4989285;28;20270;-54
2022/11/16 01:07:36;;;;;;;28.27;19.63;;;;;;;7.39;100.00;100319.97;4976005;28;20245;-54
2022/11/16 01:10:03;;;;;;;29.90;20.70;;;;;;;7.33;100.00;100325.16;4990123;28;20264;-55
2022/11/16 01:12:29;;;;;;;25.87;19.63;;;;;;;7.54;100.00;100324.41;4989218;28;20253;-57
2022/11/16 01:14:55;;;;;;;31.27;20.50;;;;;;;7.71;100.00;100320.13;4985595;28;20323;-53
2022/11/16 01:17:22;;;;;;;29.70;21.63;;;;;;;7.45;100.00;100330.47;4997879;28;20308;-54
2022/11/16 01:19:49;;;;;;;27.77;20.47;;;;;;;7.68;100.00;100332.31;4989514;28;20229;-55
2022/11/16 01:22:17;;;;;;;27.20;19.53;;;;;;;8.04;100.00;100331.56;4991169;28;20262;-54
2022/11/16 01:24:45;;;;;;;30.87;21.63;;;;;;;7.72;100.00;100331.44;4994058;28;20266;-54
2022/11/16 01:27:12;;;;;;;27.37;20.30;;;;;;;7.04;100.00;100325.88;4981834;28;20297;-54
2022/11/16 01:29:38;;;;;;;27.77;20.20;;;;;;;7.02;100.00;100324.09;4980366;28;20693;-54
2022/11/16 01:32:05;;;;;;;28.07;19.73;;;;;;;7.13;100.00;100323.31;4986265;28;20233;-54
2022/11/16 01:34:32;;;;;;;28.57;19.73;;;;;;;7.44;100.00;100325.22;4989770;28;20230;-53
2022/11/16 01:36:59;;;;;;;24.43;19.53;;;;;;;7.13;100.00;100322.44;4982028;28;20261;-54
2022/11/16 01:39:27;;;;;;;29.63;21.50;;;;;;;7.06;100.00;100315.44;4985790;28;20770;-53
2022/11/16 01:41:53;;;;;;;29.70;21.03;;;;;;;7.23;100.00;100310.31;4975465;28;20863;-53
2022/11/16 01:44:55;;;;;;;28.27;19.20;;;;;;;7.49;100.00;100306.09;4983749;28;20284;-54
2022/11/16 01:47:22;;;;;;;30.27;20.47;;;;;;;7.11;100.00;100303.28;4973661;28;20317;-53
2022/11/16 01:49:52;;;;;;;27.77;20.33;;;;;;;7.37;100.00;100295.59;4974675;28;20262;-54
2022/11/16 01:52:20;;;;;;;31.10;22.23;;;;;;;7.32;100.00;100292.09;4975871;28;20262;-54
2022/11/16 01:54:50;;;;;;;29.87;20.63;;;;;;;7.47;100.00;100292.16;4978165;28;20317;-53
2022/11/16 01:57:22;;;;;;;27.50;21.40;;;;;;;7.55;100.00;100292.22;4970473;28;20349;-56
2022/11/16 01:59:51;;;;;;;24.97;18.77;;;;;;;7.38;100.00;100292.13;4973943;28;20238;-54
2022/11/16 02:02:18;;;;;;;29.03;20.30;;;;;;;7.30;100.00;100291.19;4976169;28;20281;-53
2022/11/16 02:04:46;;;;;;;33.07;22.00;;;;;;;7.06;100.00;100285.00;4981539;28;20234;-54
2022/11/16 02:07:17;;;;;;;25.30;20.03;;;;;;;7.58;100.00;100280.03;4976074;28;20329;-54
2022/11/16 02:10:06;;;;;;;28.00;21.20;;;;;;;7.31;100.00;100285.13;4981711;28;20345;-53
2022/11/16 02:12:49;;;;;;;25.20;20.23;;;;;;;7.09;100.00;100265.84;4977517;28;20292;-54
2022/11/16 02:15:23;;;;;;;31.50;21.73;;;;;;;7.18;100.00;100261.56;4971692;28;20237;-54
2022/11/16 02:17:58;;;;;;;30.43;20.53;;;;;;;7.24;100.00;100257.25;4970435;28;20241;-54
2022/11/16 02:20:55;;;;;;;27.83;19.93;;;;;;;7.01;100.00;100250.16;4978146;28;20872;-53
2022/11/16 02:23:37;;;;;;;28.97;22.27;;;;;;;6.64;100.00;100255.16;4978304;28;20279;-54
2022/11/16 02:26:20;;;;;;;30.57;21.10;;;;;;;6.95;100.00;100244.91;4975640;28;20242;-55
2022/11/16 02:29:00;;;;;;;30.10;19.93;;;;;;;6.86;100.00;100239.63;4971395;28;20242;-53
2022/11/16 02:31:29;;;;;;;26.97;19.20;;;;;;;6.96;100.00;100244.03;4975149;28;20244;-54
2022/11/16 02:33:57;;;;;;;27.60;20.63;;;;;;;6.89;100.00;100227.47;4976486;28;20777;-54
2022/11/16 02:36:25;;;;;;;27.47;19.20;;;;;;;6.83;100.00;100229.16;4982944;28;20233;-55
2022/11/16 02:38:56;;;;;;;29.10;19.13;;;;;;;6.52;100.00;100234.19;4978314;28;20244;-55
2022/11/16 02:41:25;;;;;;;26.13;20.40;;;;;;;6.82;100.00;100232.66;4983009;28;20332;-54
2022/11/16 02:43:55;;;;;;;28.17;19.37;;;;;;;7.01;100.00;100224.03;4979451;28;20257;-54
2022/11/16 02:46:27;;;;;;;28.90;19.77;;;;;;;6.92;100.00;100224.88;4982691;28;20238;-53
2022/11/16 02:48:56;;;;;;;26.60;18.50;;;;;;;7.20;100.00;100217.19;4978950;28;20240;-53
2022/11/16 02:51:25;;;;;;;26.60;18.90;;;;;;;7.15;100.00;100221.50;4982990;28;20322;-54
2022/11/16 02:53:59;;;;;;;29.93;20.43;;;;;;;6.66;100.00;100216.00;4973581;28;20245;-53
2022/11/16 02:56:28;;;;;;;30.43;19.73;;;;;;;6.56;100.00;100222.03;4974942;28;20244;-53
2022/11/16 02:58:56;;;;;;;26.33;19.13;;;;;;;6.37;100.00;100223.63;4980259;28;20774;-54
2022/11/16 03:01:29;;;;;;;27.60;19.87;;;;;;;6.46;100.00;100221.13;4981354;28;20238;-53
2022/11/16 03:03:59;;;;;;;29.60;20.13;;;;;;;6.84;100.00;100218.72;4975563;28;20692;-54
2022/11/16 03:06:29;;;;;;;31.10;20.60;;;;;;;7.02;100.00;100223.22;4978448;28;20246;-53
2022/11/16 03:08:59;;;;;;;28.67;19.80;;;;;;;6.97;100.00;100218.81;4980647;28;20333;-54
2022/11/16 03:14:17;;;;;;;29.97;20.53;;;;;;;6.75;100.00;100226.53;4975237;28;20261;-54
2022/11/16 03:16:47;;;;;;;31.47;21.17;;;;;;;6.71;100.00;100229.09;4976928;28;20238;-53
2022/11/16 03:19:17;;;;;;;30.80;22.33;;;;;;;6.10;100.00;100227.75;4981115;28;20586;-53
2022/11/16 03:21:47;;;;;;;38.80;24.13;;;;;;;6.08;100.00;100232.09;4972630;28;20250;-54
2022/11/16 03:24:14;;;;;;;30.33;21.50;;;;;;;6.10;100.00;100230.34;4978581;28;20233;-53
2022/11/16 03:26:47;;;;;;;36.73;24.53;;;;;;;5.95;100.00;100223.28;4980887;28;20249;-53
2022/11/16 03:29:21;;;;;;;31.90;21.57;;;;;;;6.34;100.00;100223.63;4977800;28;20222;-54
2022/11/16 03:31:53;;;;;;;35.50;22.97;;;;;;;6.38;100.00;100220.16;4982566;28;20288;-54
2022/11/16 03:34:23;;;;;;;34.07;23.70;;;;;;;6.30;100.00;100214.03;4982661;28;20241;-54
2022/11/16 03:36:50;;;;;;;36.63;24.03;;;;;;;6.47;100.00;100219.38;4981042;28;20285;-54
2022/11/16 03:39:20;;;;;;;35.17;23.43;;;;;;;6.60;100.00;100215.97;4981357;28;20700;-54
2022/11/16 03:41:48;;;;;;;33.30;21.93;;;;;;;6.67;100.00;100226.47;4988089;28;20230;-55
2022/11/16 03:44:15;;;;;;;33.40;21.17;;;;;;;6.88;100.00;100222.22;4984071;28;20222;-54
2022/11/16 03:46:42;;;;;;;35.83;22.33;;;;;;;6.55;100.00;100218.56;4987595;28;20238;-54
2022/11/16 03:49:10;;;;;;;31.30;19.80;;;;;;;6.96;100.00;100214.47;4984243;28;20288;-53
2022/11/16 03:51:38;;;;;;;32.10;21.47;;;;;;;6.63;100.00;100210.78;4986580;28;20230;-54
2022/11/16 03:54:05;;;;;;;30.80;22.87;;;;;;;6.91;100.00;100211.81;4985026;28;20300;-53
2022/11/16 03:56:32;;;;;;;35.50;22.20;;;;;;;6.90;100.00;100210.94;4982541;28;20257;-54
2022/11/16 03:59:01;;;;;;;31.63;21.93;;;;;;;6.65;100.00;100207.31;4986804;28;20237;-54
2022/11/16 04:01:28;;;;;;;34.20;21.93;;;;;;;6.53;100.00;100212.47;4983808;28;20712;-53
2022/11/16 04:03:55;;;;;;;33.27;21.73;;;;;;;6.72;100.00;100210.84;4985844;28;20244;-54
2022/11/16 04:25:53;;;;;;;44.97;27.87;;;;;;;6.61;100.00;100182.09;4981896;28;20288;-55
2022/11/16 04:28:23;;;;;;;45.67;27.23;;;;;;;6.62;100.00;100188.16;4985091;28;20245;-54
2022/11/16 04:39:06;;;;;;;43.20;26.00;;;;;;;6.71;100.00;100188.25;4983009;28;20236;-54
2022/11/16 04:44:18;;;;;;;52.17;29.47;;;;;;;6.36;100.00;100172.38;4985337;28;20233;-53
2022/11/16 04:49:29;;;;;;;44.40;27.23;;;;;;;6.53;100.00;100164.63;4980104;28;20923;-53
2022/11/16 04:51:56;;;;;;;42.53;25.77;;;;;;;6.57;100.00;100177.72;4981580;28;20226;-54
2022/11/16 04:54:25;;;;;;;35.87;25.37;;;;;;;6.60;100.00;100180.34;4972599;28;20257;-54
2022/11/16 04:56:52;;;;;;;43.23;26.60;;;;;;;6.66;100.00;100171.66;4978173;28;20241;-54
2022/11/16 04:59:19;;;;;;;44.20;27.33;;;;;;;6.25;100.00;100179.22;4983131;28;20221;-53
2022/11/16 05:04:30;;;;;;;43.13;26.60;;;;;;;6.89;100.00;100171.81;4980118;28;20235;-54
2022/11/16 05:06:59;;;;;;;42.10;26.07;;;;;;;6.99;100.00;100168.38;4972751;28;20756;-55
2022/11/16 05:09:28;;;;;;;42.87;27.17;;;;;;;6.92;100.00;100166.59;4978024;28;20265;-53
2022/11/16 05:11:56;;;;;;;45.13;29.33;;;;;;;6.59;100.00;100170.75;4982904;28;20273;-54
2022/11/16 05:14:23;;;;;;;47.33;27.20;;;;;;;6.68;100.00;100173.44;4981786;28;20319;-54
2022/11/16 05:16:50;;;;;;;42.70;26.27;;;;;;;6.80;100.00;100170.00;4978112;28;20237;-54
2022/11/16 05:22:01;;;;;;;45.63;27.33;;;;;;;6.65;100.00;100173.41;4981428;28;20323;-59
2022/11/16 05:24:35;;;;;;;50.73;27.43;;;;;;;6.91;100.00;100176.19;4980377;28;20237;-53
2022/11/16 05:27:04;;;;;;;48.07;28.80;;;;;;;7.17;100.00;100176.28;4981149;28;20728;-54
2022/11/16 05:29:30;;;;;;;45.60;28.47;;;;;;;7.21;100.00;100178.91;4984082;28;20242;-60
2022/11/16 05:31:59;;;;;;;49.17;27.17;;;;;;;6.96;100.00;100176.19;4982340;28;20276;-53
2022/11/16 05:34:26;;;;;;;49.73;27.30;;;;;;;7.17;100.00;100183.25;4981886;28;20250;-54
2022/11/16 05:36:53;;;;;;;49.77;26.40;;;;;;;7.24;100.00;100186.75;4981192;28;20312;-54
2022/11/16 05:39:21;;;;;;;56.50;27.30;;;;;;;6.99;100.00;100184.03;4973891;28;21702;-54
2022/11/16 05:41:49;;;;;;;54.40;29.53;;;;;;;6.81;100.00;100195.25;4978733;28;20241;-55
2022/11/16 05:44:17;;;;;;;44.43;26.77;;;;;;;6.99;100.00;100189.25;4982761;28;20244;-54
2022/11/16 05:46:44;;;;;;;46.13;27.40;;;;;;;7.03;100.00;100193.63;4977307;28;20230;-54
2022/11/16 05:49:12;;;;;;;48.83;28.57;;;;;;;7.13;100.00;100192.81;4980079;28;20258;-54
2022/11/16 05:51:40;;;;;;;48.53;28.60;;;;;;;7.04;100.00;100192.75;4981871;28;20226;-54
2022/11/16 05:54:07;;;;;;;50.57;29.30;;;;;;;6.97;100.00;100190.97;4980950;28;20313;-53
2022/11/16 05:56:35;;;;;;;50.17;28.13;;;;;;;6.95;100.00;100192.72;4978610;28;20308;-53
2022/11/16 05:59:03;;;;;;;55.77;28.17;;;;;;;7.04;100.00;100197.09;4979056;28;20245;-54
2022/11/16 06:01:30;;;;;;;51.73;29.13;;;;;;;6.92;100.00;100187.47;4984624;28;20249;-54
2022/11/16 06:03:59;;;;;;;53.50;28.63;;;;;;;7.04;100.00;100197.97;4983701;28;20241;-54
2022/11/16 06:06:26;;;;;;;46.77;28.13;;;;;;;7.01;100.00;100192.72;4976846;28;20230;-53
2022/11/16 06:08:53;;;;;;;54.47;29.87;;;;;;;6.92;100.00;100204.00;4978702;28;20277;-54
2022/11/16 06:11:20;;;;;;;56.73;30.00;;;;;;;7.20;100.00;100208.50;4979056;28;20227;-54
2022/11/16 06:13:47;;;;;;;54.43;29.87;;;;;;;7.11;100.00;100210.19;4981488;28;20234;-55
2022/11/16 06:16:16;;;;;;;54.27;27.70;;;;;;;7.64;100.00;100211.22;4983790;28;20230;-53
2022/11/16 06:18:45;;;;;;;50.20;29.53;;;;;;;7.48;100.00;100212.94;4981460;28;20257;-53
2022/11/16 06:21:13;;;;;;;55.93;28.70;;;;;;;7.53;100.00;100199.88;4972677;28;20771;-54
2022/11/16 06:23:40;;;;;;;49.63;27.90;;;;;;;7.48;100.00;100202.50;4980561;28;20756;-53
2022/11/16 06:26:07;;;;;;;49.67;28.20;;;;;;;7.33;100.00;100205.03;4983843;28;20733;-55
2022/11/16 06:28:35;;;;;;;47.60;28.23;;;;;;;7.54;100.00;100205.09;4982226;28;20233;-55
2022/11/16 06:31:02;;;;;;;50.17;26.37;;;;;;;7.41;100.00;100209.44;4984298;28;20759;-54
2022/11/16 06:33:30;;;;;;;52.43;28.30;;;;;;;7.76;100.00;100205.19;4985768;28;20240;-63
2022/11/16 06:35:57;;;;;;;57.47;28.63;;;;;;;7.84;100.00;100213.91;4985282;28;20317;-54
2022/11/16 06:38:24;;;;;;;58.50;29.23;;;;;;;7.59;100.00;100213.84;4982629;28;20731;-54
2022/11/16 06:40:52;;;;;;;63.67;30.83;;;;;;;7.48;100.00;100218.16;4981584;28;20708;-53
2022/11/16 06:43:19;;;;;;;59.73;31.13;;;;;;;7.65;100.00;100216.47;4983952;28;20249;-54
2022/11/16 06:45:48;;;;;;;52.97;28.63;;;;;;;8.36;100.00;100211.31;4983459;28;20242;-53
2022/11/16 06:48:15;;;;;;;49.60;28.53;;;;;;;8.22;100.00;100215.69;4981991;28;20727;-54
2022/11/16 06:50:44;;;;;;;57.03;29.70;;;;;;;8.19;100.00;100219.16;4981499;28;20244;-54
2022/11/16 06:53:10;;;;;;;46.30;28.07;;;;;;;8.08;100.00;100219.16;4979123;28;20235;-54
2022/11/16 06:55:38;;;;;;;53.47;29.30;;;;;;;8.02;100.00;100218.28;4978136;28;20242;-53
2022/11/16 06:58:05;;;;;;;58.40;29.43;;;;;;;8.11;100.00;100219.16;4975134;28;20716;-54
2022/11/16 07:00:32;;;;;;;53.80;30.37;;;;;;;8.04;100.00;100217.41;4978338;28;20619;-54
2022/11/16 07:03:02;;;;;;;55.80;29.37;;;;;;;7.77;100.00;100220.84;4976556;28;20270;-55
2022/11/16 07:05:29;;;;;;;60.03;30.60;;;;;;;7.66;100.00;100222.56;4978411;28;20456;-54
2022/11/16 07:07:58;;;;;;;63.90;29.63;;;;;;;7.71;100.00;100218.22;4978973;28;20234;-53
2022/11/16 07:10:26;;;;;;;53.57;28.83;;;;;;;7.81;100.00;100221.72;4977799;28;20292;-54
2022/11/16 07:12:53;;;;;;;60.23;31.27;;;;;;;7.43;100.00;100222.50;4970837;28;20788;-54
2022/11/16 07:15:20;;;;;;;55.67;30.43;;;;;;;7.57;100.00;100218.19;4978124;28;20337;-53
2022/11/16 07:17:47;;;;;;;57.93;27.20;;;;;;;7.69;100.00;100224.28;4981715;28;20401;-54
2022/11/16 07:20:15;;;;;;;54.57;29.90;;;;;;;7.46;100.00;100225.13;4982384;28;20240;-54
2022/11/16 07:22:42;;;;;;;73.53;31.47;;;;;;;7.22;100.00;100225.88;4982051;28;20229;-54
2022/11/16 07:25:10;;;;;;;68.23;30.33;;;;;;;7.17;100.00;100218.03;4978600;28;20225;-54
2022/11/16 07:27:37;;;;;;;57.87;28.50;;;;;;;7.28;100.00;100217.22;4981445;28;20292;-54
2022/11/16 07:30:05;;;;;;;67.90;29.60;;;;;;;7.55;100.00;100222.53;4979402;28;20321;-53
2022/11/16 07:32:32;;;;;;;76.27;31.60;;;;;;;7.49;100.00;100221.66;4979490;28;20242;-54
2022/11/16 07:34:59;;;;;;;69.03;30.00;;;;;;;7.55;100.00;100222.53;4974263;28;20234;-54
2022/11/16 07:37:27;;;;;;;73.33;32.97;;;;;;;7.72;100.00;100222.59;4981886;28;20275;-54
2022/11/16 07:39:54;;;;;;;59.77;30.63;;;;;;;7.62;100.00;100229.53;4979621;28;20763;-55
2022/11/16 07:42:22;;;;;;;65.20;30.57;;;;;;;7.11;100.00;100240.63;4982089;28;21264;-55
2022/11/16 07:44:49;;;;;;;64.40;30.27;;;;;;;7.25;100.00;100225.03;4976881;28;20229;-54
2022/11/16 07:47:16;;;;;;;62.73;31.27;;;;;;;7.51;100.00;100236.47;4978455;28;20238;-53
2022/11/16 07:49:43;;;;;;;59.87;29.53;;;;;;;7.51;100.00;100228.63;4978913;28;20233;-53
2022/11/16 07:52:11;;;;;;;54.53;31.20;;;;;;;7.60;100.00;100236.47;4979908;28;20349;-53
2022/11/16 07:54:38;;;;;;;63.67;30.17;;;;;;;7.51;100.00;100233.84;4975185;28;20705;-53
2022/11/16 07:57:05;;;;;;;61.57;30.10;;;;;;;7.45;100.00;100233.81;4975825;28;20238;-54
2022/11/16 07:59:33;;;;;;;53.90;27.53;;;;;;;7.65;100.00;100234.78;4982828;28;20292;-55
2022/11/16 08:02:00;;;;;;;59.17;29.60;;;;;;;7.26;100.00;100239.81;4981090;28;20296;-53
2022/11/16 08:04:27;;;;;;;53.83;28.03;;;;;;;7.41;100.00;100237.31;4976997;28;20239;-55
2022/11/16 08:06:54;;;;;;;60.27;29.77;;;;;;;7.76;100.00;100231.31;4976607;28;20242;-54
2022/11/16 08:09:21;;;;;;;60.83;30.20;;;;;;;7.81;100.00;100234.78;4981147;28;20329;-54
2022/11/16 08:11:50;;;;;;;61.83;30.50;;;;;;;7.90;100.00;100229.59;4976696;28;20234;-54
2022/11/16 08:14:18;;;;;;;63.40;30.23;;;;;;;7.70;100.00;100241.75;4979876;28;20715;-54
2022/11/16 08:16:46;;;;;;;57.50;29.43;;;;;;;7.45;100.00;100235.56;4980050;28;20846;-54
2022/11/16 08:19:13;;;;;;;63.50;30.27;;;;;;;7.46;100.00;100238.19;4978506;28;20574;-53
2022/11/16 08:21:40;;;;;;;64.47;31.20;;;;;;;7.13;100.00;100238.91;4980257;28;20233;-53
2022/11/16 08:24:07;;;;;;;58.40;30.50;;;;;;;7.39;100.00;100232.06;4976335;28;20226;-54
2022/11/16 08:26:34;;;;;;;61.20;29.87;;;;;;;7.36;100.00;100225.94;4977284;28;20782;-54
2022/11/16 08:29:01;;;;;;;61.10;31.40;;;;;;;7.47;100.00;100226.84;4982431;28;20864;-54
2022/11/16 08:31:28;;;;;;;55.00;29.57;;;;;;;7.73;100.00;100220.84;4973093;28;20333;-54
2022/11/16 08:33:59;;;;;;;59.10;28.50;;;;;;;7.63;100.00;100219.94;4978691;28;20229;-54
2022/11/16 08:36:26;;;;;;;52.57;27.43;;;;;;;7.86;100.00;100212.13;4979756;28;20243;-55
2022/11/16 08:38:53;;;;;;;55.63;27.63;;;;;;;7.28;100.00;100212.00;4980616;28;20246;-55
2022/11/16 08:41:21;;;;;;;53.07;28.57;;;;;;;7.36;100.00;100213.75;4978506;28;20240;-54
2022/11/16 08:43:49;;;;;;;51.87;27.57;;;;;;;7.28;100.00;100212.00;4981611;28;20265;-54
2022/11/16 08:46:16;;;;;;;55.43;30.57;;;;;;;7.33;100.00;100212.88;4982103;28;20234;-54
2022/11/16 08:48:44;;;;;;;55.30;27.80;;;;;;;7.33;100.00;100205.03;4981274;28;20252;-54
2022/11/16 08:51:14;;;;;;;50.10;26.57;;;;;;;7.14;100.00;100210.19;4976245;28;20230;-54
2022/11/16 08:53:41;;;;;;;50.97;25.60;;;;;;;7.36;100.00;100197.22;4982284;28;20225;-54
2022/11/16 08:56:10;;;;;;;49.43;26.17;;;;;;;7.35;100.00;100192.88;4976068;28;20241;-53
2022/11/16 08:58:37;;;;;;;48.17;23.07;;;;;;;7.65;100.00;100185.13;4982917;28;20238;-59
2022/11/16 09:01:09;;;;;;;48.47;23.83;;;;;;;7.56;100.00;100177.25;4983636;28;20244;-55
2022/11/16 09:03:37;;;;;;;38.23;23.43;;;;;;;7.50;100.00;100181.59;4986952;28;20298;-54
2022/11/16 09:06:05;;;;;;;43.90;22.93;;;;;;;7.60;100.00;100184.22;4986757;28;20257;-55
2022/11/16 09:08:34;;;;;;;45.60;24.77;;;;;;;7.62;100.00;100173.81;4983503;28;20237;-53
2022/11/16 09:11:04;;;;;;;43.07;22.40;;;;;;;7.73;100.00;100181.66;4979597;28;20225;-54
2022/11/16 09:13:31;;;;;;;43.80;21.90;;;;;;;7.62;100.00;100176.41;4985036;28;20237;-54
2022/11/16 09:15:58;;;;;;;43.10;23.23;;;;;;;7.45;100.00;100181.59;4979515;28;20238;-54
2022/11/16 09:18:25;;;;;;;40.63;21.90;;;;;;;7.45;100.00;100171.16;4981876;28;20238;-54
2022/11/16 09:20:52;;;;;;;45.47;23.47;;;;;;;7.48;100.00;100175.50;4980707;28;20364;-53
2022/11/16 09:23:19;;;;;;;40.80;21.80;;;;;;;7.63;100.00;100173.78;4979425;28;20285;-54
2022/11/16 09:25:48;;;;;;;38.53;21.70;;;;;;;7.80;100.00;100162.50;4984675;28;20325;-55
2022/11/16 09:28:15;;;;;;;43.60;22.23;;;;;;;7.88;100.00;100171.22;4981535;28;20233;-53
2022/11/16 09:30:43;;;;;;;34.43;19.67;;;;;;;7.75;100.00;100166.84;4983082;28;20325;-53
2022/11/16 09:33:10;;;;;;;38.70;20.10;;;;;;;7.55;100.00;100162.47;4981281;28;20262;-54
2022/11/16 09:35:37;;;;;;;33.23;18.37;;;;;;;7.60;100.00;100158.09;4977385;28;20233;-54
2022/11/16 09:38:04;;;;;;;32.27;16.87;;;;;;;7.36;100.00;100163.28;4980252;28;21061;-53
2022/11/16 09:40:34;;;;;;;33.97;18.23;;;;;;;7.75;100.00;100172.94;4984885;28;20313;-53
2022/11/16 09:43:08;;;;;;;27.63;16.30;;;;;;;7.64;100.00;100164.22;4982651;28;20242;-54
2022/11/16 09:45:40;;;;;;;24.30;14.87;;;;;;;7.69;100.00;100164.19;4980549;28;20468;-55
2022/11/16 09:48:11;;;;;;;26.37;15.23;;;;;;;7.65;100.00;100163.31;4981320;28;20258;-53
2022/11/16 09:50:46;;;;;;;21.37;12.90;;;;;;;7.58;100.00;100165.09;4982434;28;20311;-54
2022/11/16 09:53:23;;;;;;;24.40;14.37;;;;;;;7.33;100.00;100164.13;4979838;28;20226;-54
2022/11/16 09:55:53;;;;;;;25.43;13.77;;;;;;;7.32;100.00;100156.31;4977604;28;20253;-53
2022/11/16 09:58:24;;;;;;;19.27;12.33;;;;;;;7.51;100.00;100159.81;4979047;28;20230;-54
2022/11/16 10:00:56;;;;;;;17.37;12.67;;;;;;;7.45;100.00;100158.09;4978074;28;20360;-53
2022/11/16 10:03:25;;;;;;;22.30;13.30;;;;;;;7.39;100.00;100147.63;4980237;28;20257;-53
2022/11/16 10:05:56;;;;;;;21.77;14.67;;;;;;;7.41;100.00;100161.56;4983604;28;20325;-55
2022/11/16 10:08:26;;;;;;;21.27;13.10;;;;;;;7.27;100.00;100158.03;4978865;28;20242;-54
2022/11/16 10:10:59;;;;;;;19.90;12.70;;;;;;;7.43;100.00;100148.50;4977801;28;20239;-54
2022/11/16 10:13:37;;;;;;;18.67;12.03;;;;;;;7.47;100.00;100156.34;4979623;28;20245;-53
2022/11/16 10:16:09;;;;;;;20.60;12.93;;;;;;;7.14;100.00;100150.16;4976809;28;20241;-54
2022/11/16 10:18:48;;;;;;;21.03;13.90;;;;;;;7.45;100.00;100146.78;4983199;28;20389;-56
2022/11/16 10:21:32;;;;;;;25.20;12.27;;;;;;;7.63;100.00;100139.81;4974394;28;20381;-53
2022/11/16 10:24:24;;;;;;;22.30;13.47;;;;;;;7.59;100.00;100140.69;4973805;28;20506;-54
2022/11/16 10:26:58;;;;;;;24.07;14.03;;;;;;;7.56;100.00;100127.63;4976410;28;20747;-54
2022/11/16 10:29:41;;;;;;;20.33;13.37;;;;;;;7.32;100.00;100130.19;4968816;28;20259;-53
2022/11/16 10:32:16;;;;;;;23.57;13.83;;;;;;;7.49;100.00;100125.00;4974201;28;20267;-54
2022/11/16 10:34:48;;;;;;;22.30;14.10;;;;;;;7.40;100.00;100125.84;4978269;28;20230;-53
2022/11/16 10:37:15;;;;;;;23.83;14.37;;;;;;;7.46;100.00;100123.25;4976858;28;20641;-54
2022/11/16 10:39:42;;;;;;;24.77;14.90;;;;;;;7.51;100.00;100121.53;4980288;28;20309;-54
2022/11/16 10:42:12;;;;;;;18.67;13.77;;;;;;;7.22;100.00;100112.75;4978269;28;20703;-54
2022/11/16 10:44:44;;;;;;;22.97;14.43;;;;;;;7.29;100.00;100119.75;4980771;28;20245;-53
2022/11/16 10:47:17;;;;;;;23.20;14.63;;;;;;;7.17;100.00;100113.63;4977477;28;20237;-54
2022/11/16 10:49:50;;;;;;;22.17;14.53;;;;;;;7.44;100.00;100122.41;4973201;28;20226;-55
2022/11/16 10:52:16;;;;;;;22.23;14.33;;;;;;;7.38;100.00;100120.63;4973025;28;20747;-53
2022/11/16 10:54:43;;;;;;;24.20;15.33;;;;;;;7.39;100.00;100129.34;4982573;28;20230;-55
2022/11/16 10:57:12;;;;;;;26.43;15.90;;;;;;;7.50;100.00;100124.13;4978296;28;20238;-55
2022/11/16 10:59:43;;;;;;;27.97;16.90;;;;;;;7.15;100.00;100123.19;4982010;28;20365;-53
2022/11/16 11:02:33;;;;;;;24.93;16.70;;;;;;;7.27;100.00;100137.16;4978995;28;20607;-54
2022/11/16 11:05:07;;;;;;;27.10;17.27;;;;;;;7.25;100.00;100133.66;4976878;28;20254;-53
2022/11/16 11:07:36;;;;;;;23.63;16.13;;;;;;;7.25;100.00;100129.31;4982553;28;20226;-56
2022/11/16 11:10:04;;;;;;;21.07;14.97;;;;;;;7.62;100.00;100122.41;4975684;28;20241;-60
2022/11/16 11:12:40;;;;;;;25.23;15.17;;;;;;;7.64;100.00;100128.50;4980214;28;20766;-54
2022/11/16 11:15:22;;;;;;;23.20;14.73;;;;;;;7.37;100.00;100123.22;4977066;28;20225;-53
2022/11/16 11:17:50;;;;;;;22.40;15.50;;;;;;;7.55;100.00;100115.44;4970691;28;20631;-54
2022/11/16 11:20:22;;;;;;;24.30;16.30;;;;;;;7.55;100.00;100115.44;4978077;28;20229;-54
2022/11/16 11:22:53;;;;;;;23.80;15.90;;;;;;;7.59;100.00;100126.78;4972248;28;20233;-54
2022/11/16 11:25:22;;;;;;;26.27;16.97;;;;;;;7.59;100.00;100125.03;4978208;28;20804;-53
2022/11/16 11:27:49;;;;;;;22.23;16.43;;;;;;;7.39;100.00;100116.28;4983621;28;20241;-55
2022/11/16 11:30:20;;;;;;;26.07;16.37;;;;;;;7.64;100.00;100131.09;4978829;28;20336;-54
2022/11/16 11:32:47;;;;;;;27.87;16.77;;;;;;;7.71;100.00;100118.94;4975095;28;20230;-53
2022/11/16 11:35:23;;;;;;;23.97;16.83;;;;;;;7.34;100.00;100123.25;4978115;28;20611;-54
2022/11/16 11:37:52;;;;;;;29.67;18.60;;;;;;;7.24;100.00;100129.31;4977896;28;20237;-53
2022/11/16 11:40:20;;;;;;;23.20;17.00;;;;;;;7.39;100.00;100121.50;4976256;28;20230;-53
2022/11/16 11:42:56;;;;;;;26.90;18.43;;;;;;;7.20;100.00;100127.56;4980824;28;20316;-54
2022/11/16 11:45:28;;;;;;;28.73;17.93;;;;;;;7.43;100.00;100133.69;4979452;28;20279;-53
2022/11/16 11:47:59;;;;;;;29.03;19.57;;;;;;;7.32;100.00;100123.22;4980645;28;20225;-53
2022/11/16 11:50:33;;;;;;;27.63;17.20;;;;;;;7.42;100.00;100126.72;4978421;28;20233;-53
2022/11/16 11:53:05;;;;;;;27.87;19.00;;;;;;;7.20;100.00;100124.94;4977795;28;20252;-54
2022/11/16 11:55:32;;;;;;;28.20;18.47;;;;;;;7.02;100.00;100129.25;4980079;28;20241;-53
2022/11/16 11:57:59;;;;;;;26.87;19.13;;;;;;;7.31;100.00;100113.66;4979391;28;20539;-54
2022/11/16 12:00:31;;;;;;;25.53;18.47;;;;;;;7.41;100.00;100109.34;4980709;28;20320;-53